Cuevas, Mississippi
Current Conditions -  °F | °C
As of 5:53 PM on Sunday 21 Dec 2014 (Local Time) from KGPT Reporting Station
Overcast Overcast  
Wind Chill: 58°   Ceiling: 1200
Heat Index: 58°   Visibility: 10mi
Dew Point: 53°   Wind: 7mph
Humidity: 84%   Direction: 60°ENE
Pressure: 29.99"   Gusts: NA
Location:  30.4627°N, 89.3274°W
Report Text: KGPT 212353Z 06006KT 10SM OVC012 14/12 A2999 RMK AO2 SLP154 T01440117 10156 20139 58003
Loading
Personal Weather Stations






























Interactive Weather Map New forecast layout! Learn more

10-Day Weather Forecast

Advertisements
Track Severe Weather on mobile